createdAt,value
2022-10-25T00:02:18.398Z,2.78
2022-10-25T00:04:47.455Z,1.70
2022-10-25T00:09:42.914Z,3.50
2022-10-25T00:12:11.364Z,1.75
2022-10-25T00:14:41.179Z,0.80
2022-10-25T00:17:08.620Z,0.98
2022-10-25T00:19:35.960Z,1.92
2022-10-25T00:22:03.310Z,1.17
2022-10-25T00:24:30.699Z,1.40
2022-10-25T00:26:58.093Z,1.50
2022-10-25T00:29:28.086Z,0.98
2022-10-25T00:32:03.927Z,1.08
2022-10-25T00:34:34.792Z,2.47
2022-10-25T00:37:06.429Z,1.60
2022-10-25T00:39:35.624Z,1.17
2022-10-25T00:42:05.848Z,1.25
2022-10-25T00:44:45.557Z,0.88
2022-10-25T00:47:15.824Z,0.75
2022-10-25T00:49:45.347Z,1.17
2022-10-25T00:52:14.831Z,1.75
2022-10-25T00:54:46.382Z,1.77
2022-10-25T00:57:17.279Z,1.10
2022-10-25T00:59:47.345Z,0.90
2022-10-25T01:02:17.888Z,1.70
2022-10-25T01:04:45.467Z,0.73
2022-10-25T01:07:13.970Z,0.45
2022-10-25T01:09:43.510Z,1.08
2022-10-25T01:12:10.868Z,1.13
2022-10-25T01:14:42.131Z,0.77
2022-10-25T01:17:32.333Z,1.35
2022-10-25T01:20:09.120Z,1.42
2022-10-25T01:22:36.479Z,0.73
2022-10-25T01:25:22.207Z,1.38
2022-10-25T01:28:07.686Z,0.95
2022-10-25T01:30:53.080Z,1.52
2022-10-25T01:33:38.751Z,0.85
2022-10-25T01:36:45.422Z,0.77
2022-10-25T01:39:26.233Z,1.70
2022-10-25T01:42:15.382Z,1.70
2022-10-25T01:45:27.151Z,2.13
2022-10-25T01:48:09.977Z,1.33
2022-10-25T01:50:41.265Z,0.98
2022-10-25T01:53:14.947Z,1.77
2022-10-25T01:55:57.312Z,1.48
2022-10-25T01:58:47.606Z,1.10
2022-10-25T02:01:29.761Z,0.93
2022-10-25T02:04:02.991Z,2.03
2022-10-25T02:06:32.830Z,1.55
2022-10-25T02:09:01.265Z,0.70
2022-10-25T02:11:41.896Z,1.10
2022-10-25T02:14:21.216Z,0.68
2022-10-25T02:16:57.639Z,1.65
2022-10-25T02:19:29.122Z,1.13
2022-10-25T02:21:58.095Z,0.93
2022-10-25T02:27:00.239Z,0.60
2022-10-25T02:29:29.633Z,0.35
2022-10-25T02:31:56.993Z,1.25
2022-10-25T02:34:24.384Z,1.48
2022-10-25T02:36:53.571Z,0.77
2022-10-25T02:39:26.475Z,0.50
2022-10-25T02:41:58.779Z,0.93
2022-10-25T02:44:33.668Z,0.80
2022-10-25T02:47:02.054Z,0.55
2022-10-25T02:49:37.074Z,0.50
2022-10-25T02:52:09.111Z,0.20
2022-10-25T02:54:39.125Z,0.70
2022-10-25T02:57:06.463Z,0.30
2022-10-25T02:59:37.488Z,0.40
2022-10-25T03:02:09.728Z,0.60
2022-10-25T03:04:37.157Z,0.22
2022-10-25T03:07:04.536Z,0.88
2022-10-25T03:09:37.214Z,0.38
2022-10-25T03:12:08.892Z,0.20
2022-10-25T03:14:42.539Z,0.38
2022-10-25T03:17:12.135Z,0.47
2022-10-25T03:19:45.590Z,0.60
2022-10-25T03:22:16.654Z,0.20
2022-10-25T03:24:55.041Z,0.90
2022-10-25T03:27:22.703Z,0.25
2022-10-25T03:29:50.150Z,0.50
2022-10-25T03:32:19.966Z,0.90
2022-10-25T03:34:52.731Z,0.63
2022-10-25T03:37:21.249Z,0.50
2022-10-25T03:39:48.592Z,0.68
2022-10-25T03:42:16.143Z,0.20
2022-10-25T03:44:52.259Z,1.58
2022-10-25T03:47:29.226Z,0.60
2022-10-25T03:50:14.671Z,0.60
2022-10-25T03:52:42.100Z,1.02
2022-10-25T03:55:09.677Z,0.30
2022-10-25T03:57:42.863Z,0.63
2022-10-25T04:00:15.646Z,0.68
2022-10-25T04:02:43.083Z,0.30
2022-10-25T04:05:13.014Z,0.20
2022-10-25T04:07:47.931Z,0.55
2022-10-25T04:10:29.457Z,0.22
2022-10-25T04:13:03.157Z,0.32
2022-10-25T04:15:34.063Z,0.90
2022-10-25T04:18:16.635Z,0.52
2022-10-25T04:24:22.381Z,0.60
2022-10-25T04:26:26.012Z,0.75
2022-10-25T04:29:04.350Z,0.57
2022-10-25T04:31:42.255Z,0.82
2022-10-25T04:34:15.757Z,1.35
2022-10-25T04:36:56.193Z,0.50
2022-10-25T04:39:26.538Z,0.30
2022-10-25T04:44:54.099Z,0.65
2022-10-25T04:47:28.009Z,0.20
2022-10-25T04:50:19.724Z,0.43
2022-10-25T04:52:49.454Z,0.73
2022-10-25T04:55:27.060Z,0.40
2022-10-25T04:58:02.746Z,0.60
2022-10-25T05:00:36.671Z,0.63
2022-10-25T05:03:14.982Z,0.43
2022-10-25T05:05:51.445Z,0.43
2022-10-25T05:08:18.848Z,0.47
2022-10-25T05:10:49.616Z,0.45
2022-10-25T05:13:17.024Z,0.40
2022-10-25T05:15:58.685Z,0.25
2022-10-25T05:18:36.064Z,0.25
2022-10-25T05:21:07.719Z,0.10
2022-10-25T05:23:38.063Z,0.43
2022-10-25T05:26:11.050Z,0.30
2022-10-25T05:28:43.555Z,0.10
2022-10-25T05:31:17.857Z,0.63
2022-10-25T05:33:52.294Z,0.15
2022-10-25T05:36:40.923Z,0.43
2022-10-25T05:39:10.817Z,0.32
2022-10-25T05:41:40.943Z,0.10
2022-10-25T05:44:13.117Z,0.38
2022-10-25T05:46:45.171Z,0.30
2022-10-25T05:49:20.415Z,0.17
2022-10-25T05:52:01.624Z,0.35
2022-10-25T05:54:49.046Z,0.20
2022-10-25T05:57:21.035Z,0.30
2022-10-25T05:59:52.961Z,0.30
2022-10-25T06:02:22.783Z,0.20
2022-10-25T06:04:52.739Z,0.28
2022-10-25T06:07:29.235Z,0.00
2022-10-25T06:10:00.011Z,0.20
2022-10-25T06:12:28.497Z,0.20
2022-10-25T06:14:56.974Z,0.10
2022-10-25T06:17:24.415Z,0.10
2022-10-25T06:19:56.621Z,0.38
2022-10-25T06:22:26.227Z,0.10
2022-10-25T06:24:54.758Z,0.10
2022-10-25T06:27:22.089Z,0.10
2022-10-25T06:29:54.144Z,0.50
2022-10-25T06:32:24.170Z,1.10
2022-10-25T06:34:54.094Z,1.13
2022-10-25T06:37:26.666Z,0.73
2022-10-25T06:40:00.377Z,1.08
2022-10-25T06:42:33.995Z,1.10
2022-10-25T06:45:01.434Z,1.20
2022-10-25T06:47:33.320Z,1.00
2022-10-25T06:50:10.855Z,2.17
2022-10-25T06:52:38.252Z,1.70
2022-10-25T06:55:09.107Z,1.20
2022-10-25T06:57:36.531Z,2.00
2022-10-25T07:00:08.370Z,3.20
2022-10-25T07:02:38.029Z,3.97
2022-10-25T07:05:10.795Z,3.50
2022-10-25T07:07:43.300Z,3.65
2022-10-25T07:10:10.754Z,2.25
2022-10-25T07:12:53.289Z,3.22
2022-10-25T07:15:26.161Z,2.28
2022-10-25T07:17:56.290Z,2.53
2022-10-25T07:20:32.609Z,0.90
2022-10-25T07:23:06.632Z,1.30
2022-10-25T07:25:42.552Z,0.80
2022-10-25T07:28:12.384Z,1.10
2022-10-25T07:30:46.390Z,1.42
2022-10-25T07:33:20.516Z,1.10
2022-10-25T07:36:06.152Z,1.20
2022-10-25T07:38:47.727Z,1.15
2022-10-25T07:41:16.950Z,0.80
2022-10-25T07:43:47.901Z,0.50
2022-10-25T07:46:18.810Z,0.98
2022-10-25T07:48:46.287Z,0.73
2022-10-25T07:51:14.872Z,0.30
2022-10-25T07:53:45.957Z,0.13
2022-10-25T07:56:17.382Z,0.28
2022-10-25T07:58:58.045Z,1.73
2022-10-25T08:01:26.599Z,0.95
2022-10-25T08:04:10.050Z,0.63
2022-10-25T08:06:49.827Z,1.00
2022-10-25T08:09:37.352Z,0.38
2022-10-25T08:12:13.871Z,1.48
2022-10-25T08:14:46.235Z,0.85
2022-10-25T08:17:20.986Z,0.82
2022-10-25T08:19:51.223Z,0.98
2022-10-25T08:22:21.905Z,0.77
2022-10-25T08:24:55.189Z,0.32
2022-10-25T08:27:30.213Z,0.77
2022-10-25T08:29:57.569Z,0.17
2022-10-25T08:32:30.717Z,0.68
2022-10-25T08:35:00.446Z,0.88
2022-10-25T08:37:27.802Z,0.80
2022-10-25T08:39:55.752Z,0.75
2022-10-25T08:42:43.251Z,1.13
2022-10-25T08:45:30.122Z,0.50
2022-10-25T08:48:00.166Z,0.38
2022-10-25T08:50:42.010Z,1.00
2022-10-25T08:53:15.591Z,0.95
2022-10-25T08:55:58.610Z,0.50
2022-10-25T08:58:37.459Z,0.80
2022-10-25T09:01:21.965Z,0.30
2022-10-25T09:03:49.558Z,0.85
2022-10-25T09:06:36.453Z,0.50
2022-10-25T09:09:15.295Z,0.30
2022-10-25T09:12:05.967Z,0.00
2022-10-25T09:14:48.922Z,0.30
2022-10-25T09:17:27.565Z,0.10
2022-10-25T09:20:12.413Z,0.20
2022-10-25T09:22:53.310Z,0.47
2022-10-25T09:25:40.867Z,0.10
2022-10-25T09:28:14.741Z,0.63
2022-10-25T09:30:46.264Z,0.60
2022-10-25T09:33:19.901Z,1.02
2022-10-25T09:35:50.914Z,0.65
2022-10-25T09:38:40.251Z,0.32
2022-10-25T09:41:12.980Z,0.52
2022-10-25T09:43:45.529Z,0.98
2022-10-25T09:46:18.211Z,0.25
2022-10-25T09:49:11.000Z,0.40
2022-10-25T09:52:08.537Z,0.98
2022-10-25T09:54:46.156Z,0.52
2022-10-25T09:57:17.229Z,0.40
2022-10-25T09:59:47.815Z,0.90
2022-10-25T10:02:25.913Z,0.50
2022-10-25T10:04:56.532Z,0.95
2022-10-25T10:07:29.464Z,0.50
2022-10-25T10:10:02.054Z,0.65
2022-10-25T10:12:55.625Z,1.00
2022-10-25T10:15:31.384Z,0.93
2022-10-25T10:18:20.929Z,0.43
2022-10-25T10:21:10.744Z,0.38
2022-10-25T10:23:44.339Z,0.98
2022-10-25T10:26:31.322Z,0.65
2022-10-25T10:29:19.076Z,0.73
2022-10-25T10:31:57.478Z,1.00
2022-10-25T10:34:30.977Z,0.50
2022-10-25T10:37:17.311Z,0.32
2022-10-25T10:39:56.590Z,0.30
2022-10-25T10:42:25.598Z,0.50
2022-10-25T10:45:08.122Z,0.77
2022-10-25T10:47:37.534Z,0.50
2022-10-25T10:50:28.742Z,0.43
2022-10-25T10:52:59.501Z,0.40
2022-10-25T10:55:35.813Z,0.50
2022-10-25T10:58:27.947Z,0.35
2022-10-25T11:01:07.528Z,0.00
2022-10-25T11:03:53.876Z,0.17
2022-10-25T11:06:38.630Z,0.60
2022-10-25T11:09:15.879Z,1.23
2022-10-25T11:11:45.046Z,0.57
2022-10-25T11:14:18.295Z,0.10
2022-10-25T11:16:48.805Z,0.00
2022-10-25T11:19:42.358Z,0.35
2022-10-25T11:22:18.324Z,0.82
2022-10-25T11:24:49.869Z,0.05
2022-10-25T11:27:31.833Z,0.10
2022-10-25T11:30:04.615Z,0.20
2022-10-25T11:32:41.472Z,0.25
2022-10-25T11:35:20.960Z,0.03
2022-10-25T11:38:03.189Z,0.10
2022-10-25T11:40:34.620Z,1.23
2022-10-25T11:43:07.672Z,0.17
2022-10-25T11:45:38.736Z,0.63
2022-10-25T11:48:46.014Z,0.70
2022-10-25T11:51:20.260Z,0.45
2022-10-25T11:54:07.471Z,0.10
2022-10-25T11:57:04.747Z,0.60
2022-10-25T11:59:34.619Z,0.22
2022-10-25T12:02:09.543Z,0.40
2022-10-25T12:04:49.206Z,0.22
2022-10-25T12:07:38.232Z,0.25
2022-10-25T12:10:07.882Z,0.30
2022-10-25T12:12:51.110Z,0.20
2022-10-25T12:15:23.467Z,0.43
2022-10-25T12:17:56.153Z,0.10
2022-10-25T12:20:27.842Z,0.28
2022-10-25T12:23:02.486Z,0.25
2022-10-25T12:25:32.915Z,0.55
2022-10-25T12:28:20.518Z,0.20
2022-10-25T12:30:48.595Z,0.10
2022-10-25T12:33:24.635Z,0.30
2022-10-25T12:35:54.034Z,0.30
2022-10-25T12:38:40.792Z,0.10
2022-10-25T12:41:18.643Z,0.25
2022-10-25T12:43:58.072Z,0.47
2022-10-25T12:47:06.622Z,0.30
2022-10-25T12:50:02.491Z,0.43
2022-10-25T12:52:38.140Z,0.68
2022-10-25T12:55:16.855Z,0.50
2022-10-25T12:58:02.583Z,0.30
2022-10-25T13:00:32.856Z,0.40
2022-10-25T13:03:03.122Z,0.30
2022-10-25T13:05:39.450Z,0.43
2022-10-25T13:08:11.353Z,0.30
2022-10-25T13:10:44.246Z,0.10
2022-10-25T13:13:14.536Z,0.15
2022-10-25T13:15:45.116Z,0.22
2022-10-25T13:18:31.208Z,0.30
2022-10-25T13:20:59.016Z,0.52
2022-10-25T13:23:54.196Z,0.28
2022-10-25T13:26:25.948Z,0.25
2022-10-25T13:28:55.423Z,0.40
2022-10-25T13:31:56.440Z,0.32
2022-10-25T13:34:31.642Z,0.20
2022-10-25T13:37:00.355Z,0.10
2022-10-25T13:39:34.385Z,0.10
2022-10-25T13:42:16.891Z,0.10
2022-10-25T13:45:02.491Z,0.20
2022-10-25T13:47:36.848Z,0.20
2022-10-25T13:53:03.350Z,0.40
2022-10-25T13:55:35.311Z,0.47
2022-10-25T13:58:03.991Z,0.30
2022-10-25T14:00:40.859Z,0.10
2022-10-25T14:03:13.170Z,0.30
2022-10-25T14:05:58.628Z,0.30
2022-10-25T14:08:40.979Z,0.50
2022-10-25T14:11:20.319Z,0.43
2022-10-25T14:13:59.078Z,0.40
2022-10-25T14:19:02.599Z,0.10
2022-10-25T14:21:32.206Z,0.47
2022-10-25T14:24:04.600Z,0.22
2022-10-25T14:26:33.713Z,0.08
2022-10-25T14:29:14.590Z,0.20
2022-10-25T14:31:43.921Z,0.35
2022-10-25T14:34:37.388Z,0.20
2022-10-25T14:37:06.859Z,1.10
2022-10-25T14:39:35.098Z,0.20
2022-10-25T14:42:02.867Z,0.30
2022-10-25T14:44:31.503Z,0.30
2022-10-25T14:47:02.319Z,0.60
2022-10-25T14:49:29.818Z,0.30
2022-10-25T14:52:00.339Z,0.43
2022-10-25T14:54:33.174Z,0.30
2022-10-25T14:57:02.538Z,0.28
2022-10-25T14:59:44.234Z,0.32
2022-10-25T15:02:27.535Z,0.10
2022-10-25T15:04:59.857Z,0.60
2022-10-25T15:07:31.734Z,0.28
2022-10-25T15:10:00.762Z,0.20
2022-10-25T15:12:30.415Z,0.80
2022-10-25T15:15:01.611Z,0.35
2022-10-25T15:17:30.100Z,0.17
2022-10-25T15:20:01.964Z,0.43
2022-10-25T15:22:45.037Z,0.50
2022-10-25T15:25:24.776Z,0.57
2022-10-25T15:27:56.944Z,0.22
2022-10-25T15:30:40.957Z,0.13
2022-10-25T15:33:12.869Z,0.25
2022-10-25T15:35:50.622Z,0.20
2022-10-25T15:38:18.880Z,0.57
2022-10-25T15:40:47.300Z,0.35
2022-10-25T15:43:17.128Z,0.20
2022-10-25T15:45:44.611Z,0.10
2022-10-25T15:48:15.927Z,0.30
2022-10-25T15:50:47.777Z,0.30
2022-10-25T15:53:15.209Z,0.55
2022-10-25T15:55:43.035Z,0.57
2022-10-25T15:58:10.804Z,0.25
2022-10-25T16:00:38.694Z,0.20
2022-10-25T16:03:08.639Z,0.47
2022-10-25T16:05:38.271Z,0.40
2022-10-25T16:08:06.238Z,0.20
2022-10-25T16:10:33.645Z,0.13
2022-10-25T16:13:06.781Z,0.22
2022-10-25T16:15:34.297Z,0.20
2022-10-25T16:18:01.618Z,0.30
2022-10-25T16:20:30.050Z,0.38
2022-10-25T16:22:57.757Z,0.10
2022-10-25T16:25:30.462Z,0.30
2022-10-25T16:28:00.344Z,0.77
2022-10-25T16:30:31.319Z,0.45
2022-10-25T16:32:58.673Z,0.50
2022-10-25T16:35:26.102Z,0.20
2022-10-25T16:37:53.524Z,0.52
2022-10-25T16:40:21.995Z,0.30
2022-10-25T16:42:50.333Z,0.30
2022-10-25T16:45:34.507Z,0.10
2022-10-25T16:50:35.223Z,1.13
2022-10-25T16:53:05.447Z,0.98
2022-10-25T16:55:32.866Z,0.50
2022-10-25T16:58:01.134Z,0.32
2022-10-25T17:00:29.066Z,0.30
2022-10-25T17:02:56.536Z,0.08
2022-10-25T17:05:26.706Z,0.30
2022-10-25T17:07:54.333Z,0.30
2022-10-25T17:10:22.290Z,0.70
2022-10-25T17:12:53.773Z,0.70
2022-10-25T17:15:22.110Z,1.13
2022-10-25T17:17:52.636Z,0.32
2022-10-25T17:20:20.081Z,0.75
2022-10-25T17:22:49.771Z,0.93
2022-10-25T17:25:17.696Z,1.30
2022-10-25T17:27:48.005Z,0.80
2022-10-25T17:30:19.360Z,0.70
2022-10-25T17:32:47.184Z,0.93
2022-10-25T17:35:15.560Z,0.55
2022-10-25T17:37:44.674Z,0.90
2022-10-25T17:40:13.838Z,0.47
2022-10-25T17:42:41.640Z,0.80
2022-10-25T17:45:09.621Z,1.17
2022-10-25T17:47:37.867Z,0.93
2022-10-25T17:50:06.353Z,1.23
2022-10-25T17:52:34.017Z,0.73
2022-10-25T17:55:02.380Z,0.57
2022-10-25T17:57:30.336Z,1.10
2022-10-25T17:59:59.238Z,0.98
2022-10-25T18:05:19.365Z,0.82
2022-10-25T18:07:49.492Z,1.65
2022-10-25T18:10:18.033Z,0.90
2022-10-25T18:12:46.278Z,0.63
2022-10-25T18:15:14.177Z,0.68
2022-10-25T18:17:42.350Z,1.08
2022-10-25T18:20:10.178Z,1.20
2022-10-25T18:22:37.796Z,1.02
2022-10-25T18:25:05.615Z,1.60
2022-10-25T18:27:33.414Z,1.02
2022-10-25T18:30:01.375Z,1.00
2022-10-25T18:32:33.686Z,1.60
2022-10-25T18:35:04.287Z,0.90
2022-10-25T18:37:32.602Z,1.05
2022-10-25T18:40:00.375Z,0.60
2022-10-25T18:42:30.102Z,1.05
2022-10-25T18:44:57.910Z,1.27
2022-10-25T18:47:25.762Z,1.33
2022-10-25T18:49:53.520Z,1.88
2022-10-25T18:52:22.798Z,1.13
2022-10-25T18:54:50.846Z,1.30
2022-10-25T18:57:18.699Z,0.80
2022-10-25T18:59:46.582Z,0.60
2022-10-25T19:02:14.661Z,0.32
2022-10-25T19:04:42.670Z,0.82
2022-10-25T19:07:13.397Z,0.47
2022-10-25T19:09:40.783Z,0.45
2022-10-25T19:12:08.643Z,0.20
2022-10-25T19:14:37.352Z,0.43
2022-10-25T19:17:05.417Z,1.20
2022-10-25T19:19:33.280Z,0.90
2022-10-25T19:22:01.147Z,0.70
2022-10-25T19:24:29.427Z,1.13
2022-10-25T19:26:59.694Z,0.93
2022-10-25T19:29:27.633Z,1.10
2022-10-25T19:31:55.508Z,0.60
2022-10-25T19:34:22.978Z,0.82
2022-10-25T19:36:52.508Z,0.38
2022-10-25T19:39:20.511Z,0.40
2022-10-25T19:41:48.375Z,0.85
2022-10-25T19:44:16.262Z,0.95
2022-10-25T19:46:43.774Z,0.60
2022-10-25T19:49:12.655Z,0.73
2022-10-25T19:54:07.914Z,0.43
2022-10-25T19:56:37.700Z,0.68
2022-10-25T19:59:05.817Z,1.52
2022-10-25T20:01:34.397Z,0.13
2022-10-25T20:06:30.794Z,0.40
2022-10-25T20:08:59.249Z,0.80
2022-10-25T20:11:27.244Z,0.20
2022-10-25T20:13:55.513Z,0.35
2022-10-25T20:16:24.034Z,1.25
2022-10-25T20:18:51.991Z,0.50
2022-10-25T20:21:24.002Z,0.30
2022-10-25T20:23:55.828Z,0.20
2022-10-25T20:26:28.335Z,0.10
2022-10-25T20:28:57.101Z,0.50
2022-10-25T20:31:25.657Z,0.25
2022-10-25T20:33:53.843Z,0.10
2022-10-25T20:36:21.889Z,0.30
2022-10-25T20:38:49.471Z,0.47
2022-10-25T20:41:21.765Z,0.30
2022-10-25T20:43:50.843Z,0.55
2022-10-25T20:48:46.724Z,1.60
2022-10-25T20:51:15.679Z,0.50
2022-10-25T20:53:44.650Z,0.68
2022-10-25T20:56:12.673Z,0.52
2022-10-25T20:58:42.978Z,1.58
2022-10-25T21:01:10.689Z,1.23
2022-10-25T21:03:38.803Z,0.60
2022-10-25T21:06:07.156Z,1.20
2022-10-25T21:08:34.938Z,0.30
2022-10-25T21:11:03.289Z,1.38
2022-10-25T21:13:32.118Z,0.22
2022-10-25T21:15:59.638Z,2.15
2022-10-25T21:18:30.090Z,0.70
2022-10-25T21:21:00.904Z,0.85
2022-10-25T21:23:28.326Z,1.20
2022-10-25T21:25:59.186Z,0.57
2022-10-25T21:28:28.313Z,0.77
2022-10-25T21:30:55.644Z,0.73
2022-10-25T21:33:23.005Z,0.50
2022-10-25T21:35:50.372Z,0.60
2022-10-25T21:38:17.879Z,0.75
2022-10-25T21:40:45.301Z,0.17
2022-10-25T21:43:12.645Z,0.65
2022-10-25T21:45:43.141Z,0.47
2022-10-25T21:48:10.584Z,1.40
2022-10-25T21:50:38.004Z,0.20
2022-10-25T21:53:05.360Z,1.55
2022-10-25T21:55:32.708Z,0.50
2022-10-25T21:58:00.258Z,0.40
2022-10-25T22:00:27.693Z,0.40
2022-10-25T22:02:55.249Z,0.82
2022-10-25T22:05:22.579Z,0.77
2022-10-25T22:07:50.418Z,0.22
2022-10-25T22:10:18.110Z,1.00
2022-10-25T22:12:45.672Z,1.02
2022-10-25T22:15:13.127Z,0.52
2022-10-25T22:17:40.467Z,0.82
2022-10-25T22:20:08.262Z,0.35
2022-10-25T22:22:35.610Z,0.68
2022-10-25T22:25:03.107Z,0.55
2022-10-25T22:27:30.517Z,0.32
2022-10-25T22:29:57.853Z,1.30
2022-10-25T22:32:25.202Z,0.60
2022-10-25T22:34:52.510Z,0.47
2022-10-25T22:37:21.048Z,0.63
2022-10-25T22:39:48.445Z,0.50
2022-10-25T22:42:15.827Z,0.93
2022-10-25T22:44:43.179Z,0.28
2022-10-25T22:47:10.588Z,0.50
2022-10-25T22:49:37.991Z,1.27
2022-10-25T22:52:05.522Z,0.55
2022-10-25T22:54:32.848Z,0.30
2022-10-25T22:57:00.196Z,0.35
2022-10-25T22:59:27.555Z,0.40
2022-10-25T23:01:54.890Z,1.17
2022-10-25T23:04:22.306Z,0.40
2022-10-25T23:06:49.662Z,0.80
2022-10-25T23:09:17.087Z,1.13
2022-10-25T23:11:46.114Z,0.43
2022-10-25T23:14:16.632Z,0.30
2022-10-25T23:16:45.101Z,0.57
2022-10-25T23:19:12.514Z,0.38
2022-10-25T23:21:39.901Z,0.77
2022-10-25T23:24:07.339Z,0.38
2022-10-25T23:26:36.609Z,0.17
2022-10-25T23:29:04.667Z,0.60
2022-10-25T23:31:32.362Z,1.15
2022-10-25T23:34:00.838Z,0.60
2022-10-25T23:36:29.444Z,0.15
2022-10-25T23:38:57.227Z,0.43
2022-10-25T23:41:24.800Z,1.08
2022-10-25T23:43:52.267Z,1.05
2022-10-25T23:46:19.718Z,0.40
2022-10-25T23:48:47.013Z,0.30
2022-10-25T23:51:15.743Z,0.15
2022-10-25T23:53:43.279Z,0.10
2022-10-25T23:56:11.939Z,0.50
2022-10-25T23:58:39.818Z,0.17
